sensor_id;sensor_type;location;lat;lon;timestamp;P1;durP1;ratioP1;P2;durP2;ratioP2
53666;SDS011;39568;51.026;5.468;2023-04-04T00:00:33;5.03;;;2.13;;
53666;SDS011;39568;51.026;5.468;2023-04-04T00:03:00;3.35;;;2.30;;
53666;SDS011;39568;51.026;5.468;2023-04-04T00:05:29;6.35;;;2.47;;
53666;SDS011;39568;51.026;5.468;2023-04-04T00:07:57;6.20;;;2.75;;
53666;SDS011;39568;51.026;5.468;2023-04-04T00:10:24;7.72;;;2.38;;
53666;SDS011;39568;51.026;5.468;2023-04-04T00:12:52;6.95;;;2.63;;
53666;SDS011;39568;51.026;5.468;2023-04-04T00:15:19;3.60;;;2.00;;
53666;SDS011;39568;51.026;5.468;2023-04-04T00:17:50;16.35;;;2.83;;
53666;SDS011;39568;51.026;5.468;2023-04-04T00:20:17;3.85;;;2.45;;
53666;SDS011;39568;51.026;5.468;2023-04-04T00:22:43;4.10;;;2.15;;
53666;SDS011;39568;51.026;5.468;2023-04-04T00:25:12;8.73;;;2.90;;
53666;SDS011;39568;51.026;5.468;2023-04-04T00:27:38;4.82;;;2.40;;
53666;SDS011;39568;51.026;5.468;2023-04-04T00:30:14;5.38;;;2.65;;
53666;SDS011;39568;51.026;5.468;2023-04-04T00:32:41;4.32;;;2.80;;
53666;SDS011;39568;51.026;5.468;2023-04-04T00:35:08;8.07;;;2.63;;
53666;SDS011;39568;51.026;5.468;2023-04-04T00:37:34;6.40;;;3.13;;
53666;SDS011;39568;51.026;5.468;2023-04-04T00:40:02;8.30;;;2.75;;
53666;SDS011;39568;51.026;5.468;2023-04-04T00:42:29;3.58;;;2.38;;
53666;SDS011;39568;51.026;5.468;2023-04-04T00:45:00;11.13;;;3.40;;
53666;SDS011;39568;51.026;5.468;2023-04-04T00:47:29;5.72;;;4.13;;
53666;SDS011;39568;51.026;5.468;2023-04-04T00:49:57;7.75;;;3.05;;
53666;SDS011;39568;51.026;5.468;2023-04-04T00:52:26;8.95;;;3.35;;
53666;SDS011;39568;51.026;5.468;2023-04-04T00:54:55;10.35;;;2.65;;
53666;SDS011;39568;51.026;5.468;2023-04-04T00:57:22;15.10;;;3.13;;
53666;SDS011;39568;51.026;5.468;2023-04-04T00:59:49;8.02;;;3.17;;
53666;SDS011;39568;51.026;5.468;2023-04-04T01:02:17;7.55;;;2.65;;
53666;SDS011;39568;51.026;5.468;2023-04-04T01:04:46;6.95;;;2.65;;
53666;SDS011;39568;51.026;5.468;2023-04-04T01:07:15;6.13;;;3.28;;
53666;SDS011;39568;51.026;5.468;2023-04-04T01:09:41;11.32;;;3.08;;
53666;SDS011;39568;51.026;5.468;2023-04-04T01:12:08;8.55;;;2.40;;
53666;SDS011;39568;51.026;5.468;2023-04-04T01:14:35;4.55;;;3.00;;
53666;SDS011;39568;51.026;5.468;2023-04-04T01:17:02;8.50;;;3.35;;
53666;SDS011;39568;51.026;5.468;2023-04-04T01:19:31;6.65;;;3.63;;
53666;SDS011;39568;51.026;5.468;2023-04-04T01:22:04;7.28;;;3.65;;
53666;SDS011;39568;51.026;5.468;2023-04-04T01:24:35;8.32;;;3.53;;
53666;SDS011;39568;51.026;5.468;2023-04-04T01:27:07;9.55;;;3.45;;
53666;SDS011;39568;51.026;5.468;2023-04-04T01:29:33;6.65;;;3.08;;
53666;SDS011;39568;51.026;5.468;2023-04-04T01:32:03;6.82;;;2.75;;
53666;SDS011;39568;51.026;5.468;2023-04-04T01:34:37;4.95;;;2.97;;
53666;SDS011;39568;51.026;5.468;2023-04-04T01:37:10;4.13;;;3.10;;
53666;SDS011;39568;51.026;5.468;2023-04-04T01:39:46;8.10;;;3.72;;
53666;SDS011;39568;51.026;5.468;2023-04-04T01:42:16;4.05;;;3.55;;
53666;SDS011;39568;51.026;5.468;2023-04-04T01:44:45;3.75;;;3.00;;
53666;SDS011;39568;51.026;5.468;2023-04-04T01:47:12;9.05;;;3.33;;
53666;SDS011;39568;51.026;5.468;2023-04-04T01:49:39;5.60;;;3.20;;
53666;SDS011;39568;51.026;5.468;2023-04-04T01:52:06;11.15;;;4.00;;
53666;SDS011;39568;51.026;5.468;2023-04-04T01:54:33;9.77;;;3.30;;
53666;SDS011;39568;51.026;5.468;2023-04-04T01:57:01;8.90;;;3.58;;
53666;SDS011;39568;51.026;5.468;2023-04-04T01:59:29;5.47;;;3.47;;
53666;SDS011;39568;51.026;5.468;2023-04-04T02:01:59;7.40;;;3.97;;
53666;SDS011;39568;51.026;5.468;2023-04-04T02:04:29;11.63;;;3.78;;
53666;SDS011;39568;51.026;5.468;2023-04-04T02:06:56;5.60;;;3.38;;
53666;SDS011;39568;51.026;5.468;2023-04-04T02:09:23;6.55;;;4.03;;
53666;SDS011;39568;51.026;5.468;2023-04-04T02:11:54;6.23;;;3.77;;
53666;SDS011;39568;51.026;5.468;2023-04-04T02:14:25;5.82;;;3.95;;
53666;SDS011;39568;51.026;5.468;2023-04-04T02:16:53;6.18;;;3.80;;
53666;SDS011;39568;51.026;5.468;2023-04-04T02:19:20;10.63;;;4.10;;
53666;SDS011;39568;51.026;5.468;2023-04-04T02:21:50;10.40;;;4.85;;
53666;SDS011;39568;51.026;5.468;2023-04-04T02:24:17;5.38;;;4.15;;
53666;SDS011;39568;51.026;5.468;2023-04-04T02:26:44;7.85;;;3.67;;
53666;SDS011;39568;51.026;5.468;2023-04-04T02:29:11;5.65;;;3.85;;
53666;SDS011;39568;51.026;5.468;2023-04-04T02:31:37;6.68;;;5.40;;
53666;SDS011;39568;51.026;5.468;2023-04-04T02:34:06;7.88;;;3.95;;
53666;SDS011;39568;51.026;5.468;2023-04-04T02:36:32;3.60;;;3.25;;
53666;SDS011;39568;51.026;5.468;2023-04-04T02:39:01;3.92;;;3.47;;
53666;SDS011;39568;51.026;5.468;2023-04-04T02:41:30;7.60;;;3.92;;
53666;SDS011;39568;51.026;5.468;2023-04-04T02:43:59;9.43;;;3.58;;
53666;SDS011;39568;51.026;5.468;2023-04-04T02:46:25;5.57;;;3.58;;
53666;SDS011;39568;51.026;5.468;2023-04-04T02:48:57;7.57;;;3.88;;
53666;SDS011;39568;51.026;5.468;2023-04-04T02:51:27;6.57;;;4.10;;
53666;SDS011;39568;51.026;5.468;2023-04-04T02:53:57;7.10;;;3.88;;
53666;SDS011;39568;51.026;5.468;2023-04-04T02:56:24;5.00;;;3.83;;
53666;SDS011;39568;51.026;5.468;2023-04-04T02:58:58;11.32;;;4.38;;
53666;SDS011;39568;51.026;5.468;2023-04-04T03:01:28;7.82;;;3.95;;
53666;SDS011;39568;51.026;5.468;2023-04-04T03:03:58;16.85;;;4.97;;
53666;SDS011;39568;51.026;5.468;2023-04-04T03:06:25;14.38;;;5.05;;
53666;SDS011;39568;51.026;5.468;2023-04-04T03:08:58;8.63;;;4.97;;
53666;SDS011;39568;51.026;5.468;2023-04-04T03:11:25;14.32;;;4.32;;
53666;SDS011;39568;51.026;5.468;2023-04-04T03:13:52;11.35;;;5.03;;
53666;SDS011;39568;51.026;5.468;2023-04-04T03:16:20;7.18;;;5.32;;
53666;SDS011;39568;51.026;5.468;2023-04-04T03:18:47;20.00;;;7.57;;
53666;SDS011;39568;51.026;5.468;2023-04-04T03:21:14;24.88;;;6.55;;
53666;SDS011;39568;51.026;5.468;2023-04-04T03:23:42;14.18;;;7.43;;
53666;SDS011;39568;51.026;5.468;2023-04-04T03:26:09;15.95;;;7.10;;
53666;SDS011;39568;51.026;5.468;2023-04-04T03:28:38;11.88;;;5.03;;
53666;SDS011;39568;51.026;5.468;2023-04-04T03:31:04;8.60;;;5.22;;
53666;SDS011;39568;51.026;5.468;2023-04-04T03:33:34;10.20;;;5.22;;
53666;SDS011;39568;51.026;5.468;2023-04-04T03:36:01;7.80;;;5.03;;
53666;SDS011;39568;51.026;5.468;2023-04-04T03:38:27;5.63;;;3.97;;
53666;SDS011;39568;51.026;5.468;2023-04-04T03:41:02;11.82;;;3.92;;
53666;SDS011;39568;51.026;5.468;2023-04-04T03:43:30;8.48;;;3.83;;
53666;SDS011;39568;51.026;5.468;2023-04-04T03:46:01;4.70;;;4.20;;
53666;SDS011;39568;51.026;5.468;2023-04-04T03:48:33;9.75;;;4.07;;
53666;SDS011;39568;51.026;5.468;2023-04-04T03:51:01;10.10;;;4.90;;
53666;SDS011;39568;51.026;5.468;2023-04-04T03:53:31;12.67;;;5.80;;
53666;SDS011;39568;51.026;5.468;2023-04-04T03:56:03;12.43;;;5.37;;
53666;SDS011;39568;51.026;5.468;2023-04-04T03:58:31;5.82;;;4.93;;
53666;SDS011;39568;51.026;5.468;2023-04-04T04:01:04;6.72;;;5.75;;
53666;SDS011;39568;51.026;5.468;2023-04-04T04:03:33;9.30;;;5.57;;
53666;SDS011;39568;51.026;5.468;2023-04-04T04:06:01;5.47;;;4.97;;
53666;SDS011;39568;51.026;5.468;2023-04-04T04:08:29;9.15;;;4.75;;
53666;SDS011;39568;51.026;5.468;2023-04-04T04:11:03;6.53;;;4.85;;
53666;SDS011;39568;51.026;5.468;2023-04-04T04:13:30;4.15;;;3.70;;
53666;SDS011;39568;51.026;5.468;2023-04-04T04:15:57;9.45;;;5.45;;
53666;SDS011;39568;51.026;5.468;2023-04-04T04:18:24;6.72;;;4.85;;
53666;SDS011;39568;51.026;5.468;2023-04-04T04:20:56;6.45;;;4.00;;
53666;SDS011;39568;51.026;5.468;2023-04-04T04:23:25;13.02;;;4.90;;
53666;SDS011;39568;51.026;5.468;2023-04-04T04:25:53;7.75;;;4.60;;
53666;SDS011;39568;51.026;5.468;2023-04-04T04:28:22;6.22;;;4.35;;
53666;SDS011;39568;51.026;5.468;2023-04-04T04:30:49;5.70;;;4.72;;
53666;SDS011;39568;51.026;5.468;2023-04-04T04:33:16;12.15;;;4.85;;
53666;SDS011;39568;51.026;5.468;2023-04-04T04:35:43;10.20;;;5.18;;
53666;SDS011;39568;51.026;5.468;2023-04-04T04:38:10;5.93;;;4.72;;
53666;SDS011;39568;51.026;5.468;2023-04-04T04:40:37;9.18;;;4.78;;
53666;SDS011;39568;51.026;5.468;2023-04-04T04:43:05;10.35;;;5.38;;
53666;SDS011;39568;51.026;5.468;2023-04-04T04:45:33;10.38;;;5.45;;
53666;SDS011;39568;51.026;5.468;2023-04-04T04:48:00;7.18;;;4.28;;
53666;SDS011;39568;51.026;5.468;2023-04-04T04:50:27;14.57;;;4.88;;
53666;SDS011;39568;51.026;5.468;2023-04-04T04:52:54;8.35;;;5.20;;
53666;SDS011;39568;51.026;5.468;2023-04-04T04:55:20;12.15;;;5.38;;
53666;SDS011;39568;51.026;5.468;2023-04-04T04:57:47;12.35;;;5.60;;
53666;SDS011;39568;51.026;5.468;2023-04-04T05:00:14;10.02;;;5.30;;
53666;SDS011;39568;51.026;5.468;2023-04-04T05:02:43;9.43;;;6.30;;
53666;SDS011;39568;51.026;5.468;2023-04-04T05:05:10;18.45;;;6.45;;
53666;SDS011;39568;51.026;5.468;2023-04-04T05:07:37;15.43;;;6.25;;
53666;SDS011;39568;51.026;5.468;2023-04-04T05:10:04;11.20;;;6.90;;
53666;SDS011;39568;51.026;5.468;2023-04-04T05:12:35;7.47;;;5.38;;
53666;SDS011;39568;51.026;5.468;2023-04-04T05:15:07;12.93;;;5.60;;
53666;SDS011;39568;51.026;5.468;2023-04-04T05:17:34;15.82;;;5.88;;
53666;SDS011;39568;51.026;5.468;2023-04-04T05:20:08;23.00;;;7.00;;
53666;SDS011;39568;51.026;5.468;2023-04-04T05:22:41;15.68;;;6.93;;
53666;SDS011;39568;51.026;5.468;2023-04-04T05:25:11;11.95;;;7.57;;
53666;SDS011;39568;51.026;5.468;2023-04-04T05:27:41;14.40;;;9.37;;
53666;SDS011;39568;51.026;5.468;2023-04-04T05:30:13;21.73;;;9.65;;
53666;SDS011;39568;51.026;5.468;2023-04-04T05:32:40;14.48;;;7.90;;
53666;SDS011;39568;51.026;5.468;2023-04-04T05:35:11;13.00;;;8.25;;
53666;SDS011;39568;51.026;5.468;2023-04-04T05:37:40;11.80;;;8.43;;
53666;SDS011;39568;51.026;5.468;2023-04-04T05:40:07;9.90;;;6.78;;
53666;SDS011;39568;51.026;5.468;2023-04-04T05:42:35;11.32;;;6.88;;
53666;SDS011;39568;51.026;5.468;2023-04-04T05:45:02;17.85;;;7.85;;
53666;SDS011;39568;51.026;5.468;2023-04-04T05:47:31;10.20;;;6.10;;
53666;SDS011;39568;51.026;5.468;2023-04-04T05:49:58;6.63;;;6.00;;
53666;SDS011;39568;51.026;5.468;2023-04-04T05:52:26;10.60;;;5.25;;
53666;SDS011;39568;51.026;5.468;2023-04-04T05:54:53;9.18;;;6.60;;
53666;SDS011;39568;51.026;5.468;2023-04-04T05:57:22;7.60;;;5.40;;
53666;SDS011;39568;51.026;5.468;2023-04-04T05:59:49;12.20;;;6.63;;
53666;SDS011;39568;51.026;5.468;2023-04-04T06:02:16;9.32;;;5.03;;
53666;SDS011;39568;51.026;5.468;2023-04-04T06:04:44;7.10;;;6.43;;
53666;SDS011;39568;51.026;5.468;2023-04-04T06:07:12;11.45;;;5.90;;
53666;SDS011;39568;51.026;5.468;2023-04-04T06:09:43;12.15;;;4.85;;
53666;SDS011;39568;51.026;5.468;2023-04-04T06:12:10;12.00;;;6.45;;
53666;SDS011;39568;51.026;5.468;2023-04-04T06:14:37;8.85;;;5.03;;
53666;SDS011;39568;51.026;5.468;2023-04-04T06:17:03;11.07;;;5.38;;
53666;SDS011;39568;51.026;5.468;2023-04-04T06:19:30;9.98;;;5.53;;
53666;SDS011;39568;51.026;5.468;2023-04-04T06:21:57;9.65;;;6.07;;
53666;SDS011;39568;51.026;5.468;2023-04-04T06:24:29;12.77;;;6.00;;
53666;SDS011;39568;51.026;5.468;2023-04-04T06:26:57;7.70;;;5.13;;
53666;SDS011;39568;51.026;5.468;2023-04-04T06:29:24;10.93;;;4.97;;
53666;SDS011;39568;51.026;5.468;2023-04-04T06:31:51;8.48;;;4.22;;
53666;SDS011;39568;51.026;5.468;2023-04-04T06:34:22;7.13;;;5.30;;
53666;SDS011;39568;51.026;5.468;2023-04-04T06:36:49;5.88;;;4.80;;
53666;SDS011;39568;51.026;5.468;2023-04-04T06:39:17;8.77;;;4.95;;
53666;SDS011;39568;51.026;5.468;2023-04-04T06:41:44;7.30;;;4.10;;
53666;SDS011;39568;51.026;5.468;2023-04-04T06:44:16;8.52;;;5.00;;
53666;SDS011;39568;51.026;5.468;2023-04-04T06:49:12;10.73;;;5.50;;
53666;SDS011;39568;51.026;5.468;2023-04-04T06:51:39;12.73;;;4.88;;
53666;SDS011;39568;51.026;5.468;2023-04-04T06:54:06;9.40;;;4.82;;
53666;SDS011;39568;51.026;5.468;2023-04-04T06:56:33;6.05;;;3.60;;
53666;SDS011;39568;51.026;5.468;2023-04-04T06:59:00;8.52;;;5.45;;
53666;SDS011;39568;51.026;5.468;2023-04-04T07:01:28;8.60;;;4.93;;
53666;SDS011;39568;51.026;5.468;2023-04-04T07:03:58;9.57;;;4.32;;
53666;SDS011;39568;51.026;5.468;2023-04-04T07:06:25;12.73;;;4.07;;
53666;SDS011;39568;51.026;5.468;2023-04-04T07:08:54;4.30;;;3.88;;
53666;SDS011;39568;51.026;5.468;2023-04-04T07:11:22;12.88;;;4.75;;
53666;SDS011;39568;51.026;5.468;2023-04-04T07:13:48;5.70;;;3.58;;
53666;SDS011;39568;51.026;5.468;2023-04-04T07:16:16;5.55;;;3.80;;
53666;SDS011;39568;51.026;5.468;2023-04-04T07:18:44;3.47;;;3.05;;
53666;SDS011;39568;51.026;5.468;2023-04-04T07:21:11;4.07;;;3.42;;
53666;SDS011;39568;51.026;5.468;2023-04-04T07:23:41;9.00;;;3.92;;
53666;SDS011;39568;51.026;5.468;2023-04-04T07:26:09;10.23;;;4.20;;
53666;SDS011;39568;51.026;5.468;2023-04-04T07:28:36;11.73;;;3.38;;
53666;SDS011;39568;51.026;5.468;2023-04-04T07:31:03;8.88;;;3.60;;
53666;SDS011;39568;51.026;5.468;2023-04-04T07:33:32;7.97;;;3.10;;
53666;SDS011;39568;51.026;5.468;2023-04-04T07:36:05;8.40;;;3.17;;
53666;SDS011;39568;51.026;5.468;2023-04-04T07:38:36;7.53;;;2.65;;
53666;SDS011;39568;51.026;5.468;2023-04-04T07:41:03;7.40;;;2.85;;
53666;SDS011;39568;51.026;5.468;2023-04-04T07:43:29;10.15;;;3.30;;
53666;SDS011;39568;51.026;5.468;2023-04-04T07:45:56;3.10;;;2.80;;
53666;SDS011;39568;51.026;5.468;2023-04-04T07:48:23;8.40;;;2.75;;
53666;SDS011;39568;51.026;5.468;2023-04-04T07:50:54;6.73;;;2.47;;
53666;SDS011;39568;51.026;5.468;2023-04-04T07:53:22;9.38;;;3.15;;
53666;SDS011;39568;51.026;5.468;2023-04-04T07:55:48;4.60;;;2.90;;
53666;SDS011;39568;51.026;5.468;2023-04-04T07:58:15;9.43;;;2.00;;
53666;SDS011;39568;51.026;5.468;2023-04-04T08:00:45;5.00;;;2.38;;
53666;SDS011;39568;51.026;5.468;2023-04-04T08:03:12;4.30;;;2.60;;
53666;SDS011;39568;51.026;5.468;2023-04-04T08:05:40;4.10;;;2.25;;
53666;SDS011;39568;51.026;5.468;2023-04-04T08:08:07;8.38;;;2.58;;
53666;SDS011;39568;51.026;5.468;2023-04-04T08:10:35;2.42;;;2.22;;
53666;SDS011;39568;51.026;5.468;2023-04-04T08:13:03;4.00;;;2.17;;
53666;SDS011;39568;51.026;5.468;2023-04-04T08:15:34;7.15;;;1.98;;
53666;SDS011;39568;51.026;5.468;2023-04-04T08:18:03;4.07;;;2.33;;
53666;SDS011;39568;51.026;5.468;2023-04-04T08:20:29;3.55;;;2.72;;
53666;SDS011;39568;51.026;5.468;2023-04-04T08:23:00;10.27;;;2.73;;
53666;SDS011;39568;51.026;5.468;2023-04-04T08:25:27;14.15;;;6.57;;
53666;SDS011;39568;51.026;5.468;2023-04-04T08:27:56;2.47;;;2.28;;
53666;SDS011;39568;51.026;5.468;2023-04-04T08:30:23;5.20;;;2.50;;
53666;SDS011;39568;51.026;5.468;2023-04-04T08:32:49;3.67;;;2.55;;
53666;SDS011;39568;51.026;5.468;2023-04-04T08:35:16;7.25;;;3.30;;
53666;SDS011;39568;51.026;5.468;2023-04-04T08:37:50;4.88;;;2.00;;
53666;SDS011;39568;51.026;5.468;2023-04-04T08:40:21;4.15;;;2.33;;
53666;SDS011;39568;51.026;5.468;2023-04-04T08:42:49;2.78;;;1.73;;
53666;SDS011;39568;51.026;5.468;2023-04-04T08:45:17;3.05;;;2.00;;
53666;SDS011;39568;51.026;5.468;2023-04-04T08:47:47;2.87;;;2.17;;
53666;SDS011;39568;51.026;5.468;2023-04-04T08:50:15;1.67;;;1.58;;
53666;SDS011;39568;51.026;5.468;2023-04-04T08:52:47;4.40;;;1.80;;
53666;SDS011;39568;51.026;5.468;2023-04-04T08:55:14;7.53;;;2.00;;
53666;SDS011;39568;51.026;5.468;2023-04-04T08:57:47;5.63;;;1.83;;
53666;SDS011;39568;51.026;5.468;2023-04-04T09:00:14;3.95;;;2.20;;
53666;SDS011;39568;51.026;5.468;2023-04-04T09:02:48;5.25;;;2.38;;
53666;SDS011;39568;51.026;5.468;2023-04-04T09:05:19;5.05;;;2.38;;
53666;SDS011;39568;51.026;5.468;2023-04-04T09:07:49;3.28;;;2.05;;
53666;SDS011;39568;51.026;5.468;2023-04-04T09:10:16;2.30;;;2.03;;
53666;SDS011;39568;51.026;5.468;2023-04-04T09:12:45;3.83;;;2.55;;
53666;SDS011;39568;51.026;5.468;2023-04-04T09:15:13;4.72;;;2.03;;
53666;SDS011;39568;51.026;5.468;2023-04-04T09:17:41;3.17;;;1.65;;
53666;SDS011;39568;51.026;5.468;2023-04-04T09:23:08;4.78;;;1.13;;
53666;SDS011;39568;51.026;5.468;2023-04-04T09:25:37;5.93;;;1.52;;
53666;SDS011;39568;51.026;5.468;2023-04-04T09:28:10;5.75;;;1.92;;
53666;SDS011;39568;51.026;5.468;2023-04-04T09:30:36;5.10;;;1.70;;
53666;SDS011;39568;51.026;5.468;2023-04-04T09:33:03;4.60;;;1.73;;
53666;SDS011;39568;51.026;5.468;2023-04-04T09:35:32;3.85;;;1.83;;
53666;SDS011;39568;51.026;5.468;2023-04-04T09:38:01;5.07;;;1.58;;
53666;SDS011;39568;51.026;5.468;2023-04-04T09:40:34;3.17;;;1.63;;
53666;SDS011;39568;51.026;5.468;2023-04-04T09:43:01;3.90;;;1.50;;
53666;SDS011;39568;51.026;5.468;2023-04-04T09:45:29;6.43;;;2.00;;
53666;SDS011;39568;51.026;5.468;2023-04-04T09:47:56;4.35;;;2.05;;
53666;SDS011;39568;51.026;5.468;2023-04-04T09:50:24;4.75;;;2.08;;
53666;SDS011;39568;51.026;5.468;2023-04-04T09:52:53;3.75;;;1.80;;
53666;SDS011;39568;51.026;5.468;2023-04-04T09:55:23;3.20;;;1.90;;
53666;SDS011;39568;51.026;5.468;2023-04-04T09:57:57;6.30;;;2.00;;
53666;SDS011;39568;51.026;5.468;2023-04-04T10:00:26;1.92;;;1.60;;
53666;SDS011;39568;51.026;5.468;2023-04-04T10:03:01;1.67;;;1.35;;
53666;SDS011;39568;51.026;5.468;2023-04-04T10:05:28;6.13;;;4.82;;
53666;SDS011;39568;51.026;5.468;2023-04-04T10:07:55;2.80;;;1.55;;
53666;SDS011;39568;51.026;5.468;2023-04-04T10:10:24;4.10;;;1.50;;
53666;SDS011;39568;51.026;5.468;2023-04-04T10:12:56;2.40;;;1.50;;
53666;SDS011;39568;51.026;5.468;2023-04-04T10:15:23;7.03;;;1.83;;
53666;SDS011;39568;51.026;5.468;2023-04-04T10:18:00;2.45;;;1.73;;
53666;SDS011;39568;51.026;5.468;2023-04-04T10:20:28;5.45;;;1.98;;
53666;SDS011;39568;51.026;5.468;2023-04-04T10:22:59;11.80;;;2.42;;
53666;SDS011;39568;51.026;5.468;2023-04-04T10:25:28;4.53;;;1.88;;
53666;SDS011;39568;51.026;5.468;2023-04-04T10:27:55;3.10;;;1.65;;
53666;SDS011;39568;51.026;5.468;2023-04-04T10:30:22;2.53;;;1.52;;
53666;SDS011;39568;51.026;5.468;2023-04-04T10:32:49;3.72;;;1.98;;
53666;SDS011;39568;51.026;5.468;2023-04-04T10:35:23;2.28;;;1.83;;
53666;SDS011;39568;51.026;5.468;2023-04-04T10:37:54;6.15;;;1.98;;
53666;SDS011;39568;51.026;5.468;2023-04-04T10:46:16;1.50;;;1.40;;
53666;SDS011;39568;51.026;5.468;2023-04-04T10:48:46;3.20;;;1.95;;
53666;SDS011;39568;51.026;5.468;2023-04-04T10:51:14;3.95;;;2.38;;
53666;SDS011;39568;51.026;5.468;2023-04-04T10:53:42;3.92;;;1.55;;
53666;SDS011;39568;51.026;5.468;2023-04-04T10:56:08;6.43;;;2.53;;
53666;SDS011;39568;51.026;5.468;2023-04-04T10:58:39;4.18;;;1.83;;
53666;SDS011;39568;51.026;5.468;2023-04-04T11:01:06;4.25;;;2.20;;
53666;SDS011;39568;51.026;5.468;2023-04-04T11:09:44;6.72;;;2.83;;
53666;SDS011;39568;51.026;5.468;2023-04-04T11:12:14;3.35;;;1.90;;
53666;SDS011;39568;51.026;5.468;2023-04-04T11:20:30;3.42;;;2.03;;
53666;SDS011;39568;51.026;5.468;2023-04-04T11:23:02;5.03;;;2.17;;
53666;SDS011;39568;51.026;5.468;2023-04-04T11:25:34;1.73;;;1.45;;
53666;SDS011;39568;51.026;5.468;2023-04-04T11:28:06;4.40;;;1.90;;
53666;SDS011;39568;51.026;5.468;2023-04-04T11:30:39;5.93;;;2.20;;
53666;SDS011;39568;51.026;5.468;2023-04-04T11:33:12;2.80;;;1.80;;
53666;SDS011;39568;51.026;5.468;2023-04-04T11:35:43;5.25;;;2.40;;
53666;SDS011;39568;51.026;5.468;2023-04-04T11:38:12;4.57;;;2.05;;
53666;SDS011;39568;51.026;5.468;2023-04-04T11:40:40;4.90;;;2.65;;
53666;SDS011;39568;51.026;5.468;2023-04-04T11:43:11;5.18;;;2.15;;
53666;SDS011;39568;51.026;5.468;2023-04-04T11:45:44;2.50;;;2.13;;
53666;SDS011;39568;51.026;5.468;2023-04-04T11:48:12;4.13;;;2.25;;
53666;SDS011;39568;51.026;5.468;2023-04-04T11:50:45;3.28;;;1.73;;
53666;SDS011;39568;51.026;5.468;2023-04-04T11:53:16;4.18;;;2.30;;
53666;SDS011;39568;51.026;5.468;2023-04-04T11:55:43;3.88;;;2.55;;
53666;SDS011;39568;51.026;5.468;2023-04-04T11:58:15;6.28;;;2.20;;
53666;SDS011;39568;51.026;5.468;2023-04-04T12:00:45;3.42;;;2.22;;
53666;SDS011;39568;51.026;5.468;2023-04-04T12:03:14;12.75;;;2.28;;
53666;SDS011;39568;51.026;5.468;2023-04-04T12:05:43;2.63;;;1.80;;
53666;SDS011;39568;51.026;5.468;2023-04-04T12:08:20;2.03;;;1.90;;
53666;SDS011;39568;51.026;5.468;2023-04-04T12:10:48;3.35;;;2.25;;
53666;SDS011;39568;51.026;5.468;2023-04-04T12:13:17;2.42;;;1.88;;
53666;SDS011;39568;51.026;5.468;2023-04-04T12:15:44;2.20;;;2.00;;
53666;SDS011;39568;51.026;5.468;2023-04-04T12:18:19;5.43;;;2.55;;
53666;SDS011;39568;51.026;5.468;2023-04-04T12:20:49;3.03;;;2.13;;
53666;SDS011;39568;51.026;5.468;2023-04-04T12:23:20;5.50;;;2.67;;
53666;SDS011;39568;51.026;5.468;2023-04-04T12:25:47;2.17;;;1.98;;
53666;SDS011;39568;51.026;5.468;2023-04-04T12:28:18;2.28;;;1.73;;
53666;SDS011;39568;51.026;5.468;2023-04-04T12:30:45;5.57;;;2.38;;
53666;SDS011;39568;51.026;5.468;2023-04-04T12:33:12;3.42;;;2.33;;
53666;SDS011;39568;51.026;5.468;2023-04-04T12:35:39;6.43;;;2.30;;
53666;SDS011;39568;51.026;5.468;2023-04-04T12:38:07;8.02;;;2.45;;
53666;SDS011;39568;51.026;5.468;2023-04-04T12:40:44;3.80;;;2.08;;
53666;SDS011;39568;51.026;5.468;2023-04-04T12:43:15;5.47;;;1.95;;
53666;SDS011;39568;51.026;5.468;2023-04-04T12:45:42;2.33;;;1.90;;
53666;SDS011;39568;51.026;5.468;2023-04-04T12:48:10;2.45;;;1.80;;
53666;SDS011;39568;51.026;5.468;2023-04-04T12:50:47;2.53;;;1.77;;
53666;SDS011;39568;51.026;5.468;2023-04-04T12:53:19;4.80;;;1.95;;
53666;SDS011;39568;51.026;5.468;2023-04-04T12:55:47;4.88;;;2.08;;
53666;SDS011;39568;51.026;5.468;2023-04-04T12:58:15;3.35;;;2.00;;
53666;SDS011;39568;51.026;5.468;2023-04-04T13:00:45;6.07;;;2.60;;
53666;SDS011;39568;51.026;5.468;2023-04-04T13:03:13;3.08;;;1.95;;
53666;SDS011;39568;51.026;5.468;2023-04-04T13:05:45;6.38;;;2.00;;
53666;SDS011;39568;51.026;5.468;2023-04-04T13:08:12;6.22;;;2.35;;
53666;SDS011;39568;51.026;5.468;2023-04-04T13:10:56;6.45;;;3.15;;
53666;SDS011;39568;51.026;5.468;2023-04-04T13:13:31;7.18;;;2.33;;
53666;SDS011;39568;51.026;5.468;2023-04-04T13:16:03;2.47;;;2.10;;
53666;SDS011;39568;51.026;5.468;2023-04-04T13:18:32;9.07;;;2.88;;
53666;SDS011;39568;51.026;5.468;2023-04-04T13:21:01;10.70;;;3.05;;
53666;SDS011;39568;51.026;5.468;2023-04-04T13:23:29;7.47;;;2.38;;
53666;SDS011;39568;51.026;5.468;2023-04-04T13:25:58;13.20;;;3.00;;
53666;SDS011;39568;51.026;5.468;2023-04-04T13:28:25;3.65;;;2.22;;
53666;SDS011;39568;51.026;5.468;2023-04-04T13:30:52;4.47;;;2.67;;
53666;SDS011;39568;51.026;5.468;2023-04-04T13:33:25;6.03;;;3.20;;
53666;SDS011;39568;51.026;5.468;2023-04-04T13:35:51;3.97;;;2.55;;
53666;SDS011;39568;51.026;5.468;2023-04-04T13:38:18;6.90;;;2.45;;
53666;SDS011;39568;51.026;5.468;2023-04-04T13:40:45;4.60;;;2.85;;
53666;SDS011;39568;51.026;5.468;2023-04-04T13:43:13;4.50;;;2.75;;
53666;SDS011;39568;51.026;5.468;2023-04-04T13:45:40;9.75;;;3.00;;
53666;SDS011;39568;51.026;5.468;2023-04-04T13:48:07;5.50;;;2.92;;
53666;SDS011;39568;51.026;5.468;2023-04-04T13:50:34;7.95;;;2.30;;
53666;SDS011;39568;51.026;5.468;2023-04-04T13:53:07;7.07;;;2.45;;
53666;SDS011;39568;51.026;5.468;2023-04-04T13:55:34;9.48;;;2.65;;
53666;SDS011;39568;51.026;5.468;2023-04-04T13:58:04;7.20;;;3.17;;
53666;SDS011;39568;51.026;5.468;2023-04-04T14:00:32;3.28;;;2.90;;
53666;SDS011;39568;51.026;5.468;2023-04-04T14:02:58;8.18;;;3.10;;
53666;SDS011;39568;51.026;5.468;2023-04-04T14:05:28;6.23;;;2.80;;
53666;SDS011;39568;51.026;5.468;2023-04-04T14:07:58;9.17;;;3.17;;
53666;SDS011;39568;51.026;5.468;2023-04-04T14:10:24;5.75;;;2.80;;
53666;SDS011;39568;51.026;5.468;2023-04-04T14:12:51;3.33;;;2.42;;
53666;SDS011;39568;51.026;5.468;2023-04-04T14:15:18;5.68;;;2.97;;
53666;SDS011;39568;51.026;5.468;2023-04-04T14:17:46;5.13;;;2.95;;
53666;SDS011;39568;51.026;5.468;2023-04-04T14:20:12;6.32;;;2.90;;
53666;SDS011;39568;51.026;5.468;2023-04-04T14:22:39;6.00;;;3.33;;
53666;SDS011;39568;51.026;5.468;2023-04-04T14:25:06;7.88;;;2.88;;
53666;SDS011;39568;51.026;5.468;2023-04-04T14:27:33;6.25;;;3.42;;
53666;SDS011;39568;51.026;5.468;2023-04-04T14:30:00;7.72;;;3.10;;
53666;SDS011;39568;51.026;5.468;2023-04-04T14:32:27;6.22;;;2.75;;
53666;SDS011;39568;51.026;5.468;2023-04-04T14:34:56;3.17;;;2.78;;
53666;SDS011;39568;51.026;5.468;2023-04-04T14:37:22;5.75;;;3.45;;
53666;SDS011;39568;51.026;5.468;2023-04-04T14:39:49;3.00;;;2.78;;
53666;SDS011;39568;51.026;5.468;2023-04-04T14:42:16;5.75;;;3.05;;
53666;SDS011;39568;51.026;5.468;2023-04-04T14:44:43;5.78;;;3.22;;
53666;SDS011;39568;51.026;5.468;2023-04-04T14:47:11;4.28;;;3.05;;
53666;SDS011;39568;51.026;5.468;2023-04-04T14:49:38;5.80;;;2.65;;
53666;SDS011;39568;51.026;5.468;2023-04-04T14:52:09;4.38;;;2.65;;
53666;SDS011;39568;51.026;5.468;2023-04-04T14:54:36;7.57;;;3.28;;
53666;SDS011;39568;51.026;5.468;2023-04-04T14:57:04;3.50;;;3.15;;
53666;SDS011;39568;51.026;5.468;2023-04-04T14:59:31;2.60;;;2.40;;
53666;SDS011;39568;51.026;5.468;2023-04-04T15:01:58;5.22;;;2.80;;
53666;SDS011;39568;51.026;5.468;2023-04-04T15:04:24;7.85;;;3.15;;
53666;SDS011;39568;51.026;5.468;2023-04-04T15:06:51;6.72;;;3.25;;
53666;SDS011;39568;51.026;5.468;2023-04-04T15:09:28;2.85;;;2.65;;
53666;SDS011;39568;51.026;5.468;2023-04-04T15:11:56;9.27;;;3.38;;
53666;SDS011;39568;51.026;5.468;2023-04-04T15:14:24;4.13;;;2.75;;
53666;SDS011;39568;51.026;5.468;2023-04-04T15:16:51;4.63;;;2.83;;